sensor_id;sensor_type;location;lat;lon;timestamp;P1;durP1;ratioP1;P2;durP2;ratioP2
11054;SDS011;5580;50.106;8.702;2023-03-29T00:02:24;3.80;;;3.00;;
11054;SDS011;5580;50.106;8.702;2023-03-29T00:04:54;3.77;;;2.93;;
11054;SDS011;5580;50.106;8.702;2023-03-29T00:07:21;4.00;;;3.13;;
11054;SDS011;5580;50.106;8.702;2023-03-29T00:09:47;6.93;;;3.50;;
11054;SDS011;5580;50.106;8.702;2023-03-29T00:12:13;4.83;;;3.17;;
11054;SDS011;5580;50.106;8.702;2023-03-29T00:14:39;7.47;;;3.17;;
11054;SDS011;5580;50.106;8.702;2023-03-29T00:17:05;3.23;;;2.93;;
11054;SDS011;5580;50.106;8.702;2023-03-29T00:19:30;6.27;;;3.10;;
11054;SDS011;5580;50.106;8.702;2023-03-29T00:22:01;4.23;;;3.37;;
11054;SDS011;5580;50.106;8.702;2023-03-29T00:24:29;6.33;;;3.40;;
11054;SDS011;5580;50.106;8.702;2023-03-29T00:26:58;4.83;;;3.03;;
11054;SDS011;5580;50.106;8.702;2023-03-29T00:29:23;3.60;;;2.90;;
11054;SDS011;5580;50.106;8.702;2023-03-29T00:31:49;4.80;;;3.33;;
11054;SDS011;5580;50.106;8.702;2023-03-29T00:34:21;4.93;;;2.93;;
11054;SDS011;5580;50.106;8.702;2023-03-29T00:36:48;5.63;;;3.20;;
11054;SDS011;5580;50.106;8.702;2023-03-29T00:39:17;4.37;;;2.90;;
11054;SDS011;5580;50.106;8.702;2023-03-29T00:41:48;5.70;;;3.03;;
11054;SDS011;5580;50.106;8.702;2023-03-29T00:47:19;3.37;;;2.97;;
11054;SDS011;5580;50.106;8.702;2023-03-29T00:49:48;3.20;;;2.90;;
11054;SDS011;5580;50.106;8.702;2023-03-29T00:52:16;4.87;;;3.10;;
11054;SDS011;5580;50.106;8.702;2023-03-29T00:54:45;4.33;;;3.37;;
11054;SDS011;5580;50.106;8.702;2023-03-29T00:57:14;3.93;;;2.93;;
11054;SDS011;5580;50.106;8.702;2023-03-29T00:59:42;4.13;;;3.30;;
11054;SDS011;5580;50.106;8.702;2023-03-29T01:02:11;5.07;;;2.97;;
11054;SDS011;5580;50.106;8.702;2023-03-29T01:04:39;4.10;;;3.30;;
11054;SDS011;5580;50.106;8.702;2023-03-29T01:07:11;4.73;;;3.20;;
11054;SDS011;5580;50.106;8.702;2023-03-29T01:09:42;4.53;;;3.30;;
11054;SDS011;5580;50.106;8.702;2023-03-29T01:12:15;3.53;;;3.20;;
11054;SDS011;5580;50.106;8.702;2023-03-29T01:14:46;5.60;;;3.40;;
11054;SDS011;5580;50.106;8.702;2023-03-29T01:17:25;6.63;;;3.27;;
11054;SDS011;5580;50.106;8.702;2023-03-29T01:19:54;4.60;;;3.40;;
11054;SDS011;5580;50.106;8.702;2023-03-29T01:25:09;4.47;;;3.00;;
11054;SDS011;5580;50.106;8.702;2023-03-29T01:27:53;5.53;;;3.60;;
11054;SDS011;5580;50.106;8.702;2023-03-29T01:30:31;4.80;;;3.40;;
11054;SDS011;5580;50.106;8.702;2023-03-29T01:33:05;5.83;;;3.40;;
11054;SDS011;5580;50.106;8.702;2023-03-29T01:38:29;5.43;;;3.50;;
11054;SDS011;5580;50.106;8.702;2023-03-29T01:41:09;6.77;;;3.70;;
11054;SDS011;5580;50.106;8.702;2023-03-29T01:46:09;4.53;;;3.13;;
11054;SDS011;5580;50.106;8.702;2023-03-29T01:48:50;4.63;;;3.53;;
11054;SDS011;5580;50.106;8.702;2023-03-29T01:56:37;6.60;;;3.67;;
11054;SDS011;5580;50.106;8.702;2023-03-29T01:59:06;7.07;;;3.90;;
11054;SDS011;5580;50.106;8.702;2023-03-29T02:01:36;6.97;;;3.97;;
11054;SDS011;5580;50.106;8.702;2023-03-29T02:04:07;6.10;;;3.77;;
11054;SDS011;5580;50.106;8.702;2023-03-29T02:06:37;6.33;;;3.77;;
11054;SDS011;5580;50.106;8.702;2023-03-29T02:09:04;6.67;;;3.80;;
11054;SDS011;5580;50.106;8.702;2023-03-29T02:11:31;8.30;;;3.93;;
11054;SDS011;5580;50.106;8.702;2023-03-29T02:13:59;5.77;;;3.80;;
11054;SDS011;5580;50.106;8.702;2023-03-29T02:16:25;4.27;;;3.60;;
11054;SDS011;5580;50.106;8.702;2023-03-29T02:18:50;8.37;;;3.90;;
11054;SDS011;5580;50.106;8.702;2023-03-29T02:21:24;6.73;;;4.00;;
11054;SDS011;5580;50.106;8.702;2023-03-29T02:23:54;5.37;;;3.90;;
11054;SDS011;5580;50.106;8.702;2023-03-29T02:26:23;6.87;;;4.00;;
11054;SDS011;5580;50.106;8.702;2023-03-29T02:28:50;5.53;;;3.93;;
11054;SDS011;5580;50.106;8.702;2023-03-29T02:36:22;6.90;;;3.57;;
11054;SDS011;5580;50.106;8.702;2023-03-29T02:38:59;6.87;;;3.83;;
11054;SDS011;5580;50.106;8.702;2023-03-29T02:41:28;6.40;;;4.03;;
11054;SDS011;5580;50.106;8.702;2023-03-29T02:43:54;7.07;;;3.90;;
11054;SDS011;5580;50.106;8.702;2023-03-29T02:46:22;4.10;;;3.60;;
11054;SDS011;5580;50.106;8.702;2023-03-29T02:48:48;7.23;;;4.00;;
11054;SDS011;5580;50.106;8.702;2023-03-29T02:51:19;5.47;;;4.03;;
11054;SDS011;5580;50.106;8.702;2023-03-29T02:53:52;7.50;;;4.20;;
11054;SDS011;5580;50.106;8.702;2023-03-29T02:56:54;7.20;;;4.20;;
11054;SDS011;5580;50.106;8.702;2023-03-29T02:59:21;8.33;;;4.10;;
11054;SDS011;5580;50.106;8.702;2023-03-29T03:01:47;5.90;;;4.03;;
11054;SDS011;5580;50.106;8.702;2023-03-29T03:04:13;6.37;;;4.07;;
11054;SDS011;5580;50.106;8.702;2023-03-29T03:06:39;5.50;;;4.00;;
11054;SDS011;5580;50.106;8.702;2023-03-29T03:09:05;5.60;;;3.67;;
11054;SDS011;5580;50.106;8.702;2023-03-29T03:11:31;5.30;;;3.90;;
11054;SDS011;5580;50.106;8.702;2023-03-29T03:13:57;4.17;;;3.77;;
11054;SDS011;5580;50.106;8.702;2023-03-29T03:16:23;6.63;;;4.03;;
11054;SDS011;5580;50.106;8.702;2023-03-29T03:18:50;5.77;;;4.17;;
11054;SDS011;5580;50.106;8.702;2023-03-29T03:21:19;7.43;;;4.17;;
11054;SDS011;5580;50.106;8.702;2023-03-29T03:23:46;9.20;;;4.20;;
11054;SDS011;5580;50.106;8.702;2023-03-29T03:26:12;5.93;;;3.80;;
11054;SDS011;5580;50.106;8.702;2023-03-29T03:28:39;7.47;;;4.20;;
11054;SDS011;5580;50.106;8.702;2023-03-29T03:31:04;6.27;;;4.20;;
11054;SDS011;5580;50.106;8.702;2023-03-29T03:33:31;6.47;;;4.40;;
11054;SDS011;5580;50.106;8.702;2023-03-29T03:35:56;8.30;;;4.57;;
11054;SDS011;5580;50.106;8.702;2023-03-29T03:38:30;7.73;;;4.80;;
11054;SDS011;5580;50.106;8.702;2023-03-29T03:40:56;5.70;;;4.10;;
11054;SDS011;5580;50.106;8.702;2023-03-29T03:43:23;9.63;;;4.50;;
11054;SDS011;5580;50.106;8.702;2023-03-29T03:45:49;6.33;;;4.20;;
11054;SDS011;5580;50.106;8.702;2023-03-29T03:48:15;6.73;;;4.20;;
11054;SDS011;5580;50.106;8.702;2023-03-29T03:50:41;7.77;;;4.30;;
11054;SDS011;5580;50.106;8.702;2023-03-29T03:53:11;5.77;;;3.90;;
11054;SDS011;5580;50.106;8.702;2023-03-29T03:55:37;7.60;;;4.30;;
11054;SDS011;5580;50.106;8.702;2023-03-29T03:58:03;5.87;;;4.10;;
11054;SDS011;5580;50.106;8.702;2023-03-29T04:00:29;6.27;;;4.10;;
11054;SDS011;5580;50.106;8.702;2023-03-29T04:02:54;5.93;;;4.10;;
11054;SDS011;5580;50.106;8.702;2023-03-29T04:05:20;6.57;;;4.00;;
11054;SDS011;5580;50.106;8.702;2023-03-29T04:07:46;6.23;;;3.93;;
11054;SDS011;5580;50.106;8.702;2023-03-29T04:10:11;6.33;;;3.73;;
11054;SDS011;5580;50.106;8.702;2023-03-29T04:12:37;6.00;;;4.00;;
11054;SDS011;5580;50.106;8.702;2023-03-29T04:15:04;7.77;;;4.10;;
11054;SDS011;5580;50.106;8.702;2023-03-29T04:17:30;5.13;;;3.70;;
11054;SDS011;5580;50.106;8.702;2023-03-29T04:19:56;4.73;;;3.73;;
11054;SDS011;5580;50.106;8.702;2023-03-29T04:22:22;5.17;;;3.73;;
11054;SDS011;5580;50.106;8.702;2023-03-29T04:24:50;5.47;;;3.97;;
11054;SDS011;5580;50.106;8.702;2023-03-29T04:27:15;5.50;;;3.70;;
11054;SDS011;5580;50.106;8.702;2023-03-29T04:29:41;8.47;;;4.10;;
11054;SDS011;5580;50.106;8.702;2023-03-29T04:32:09;5.67;;;4.10;;
11054;SDS011;5580;50.106;8.702;2023-03-29T04:34:35;5.03;;;3.73;;
11054;SDS011;5580;50.106;8.702;2023-03-29T04:37:01;5.03;;;3.93;;
11054;SDS011;5580;50.106;8.702;2023-03-29T04:39:27;8.80;;;4.20;;
11054;SDS011;5580;50.106;8.702;2023-03-29T04:41:57;7.17;;;4.27;;
11054;SDS011;5580;50.106;8.702;2023-03-29T04:44:24;6.83;;;4.43;;
11054;SDS011;5580;50.106;8.702;2023-03-29T04:46:50;7.30;;;4.30;;
11054;SDS011;5580;50.106;8.702;2023-03-29T04:49:16;8.10;;;4.43;;
11054;SDS011;5580;50.106;8.702;2023-03-29T04:51:42;6.17;;;4.00;;
11054;SDS011;5580;50.106;8.702;2023-03-29T04:54:07;5.83;;;4.00;;
11054;SDS011;5580;50.106;8.702;2023-03-29T04:56:34;8.23;;;4.20;;
11054;SDS011;5580;50.106;8.702;2023-03-29T04:58:59;7.13;;;4.00;;
11054;SDS011;5580;50.106;8.702;2023-03-29T05:01:25;8.63;;;4.13;;
11054;SDS011;5580;50.106;8.702;2023-03-29T05:03:50;8.53;;;4.27;;
11054;SDS011;5580;50.106;8.702;2023-03-29T05:06:16;8.60;;;4.30;;
11054;SDS011;5580;50.106;8.702;2023-03-29T05:08:42;9.63;;;4.40;;
11054;SDS011;5580;50.106;8.702;2023-03-29T05:11:09;5.27;;;4.10;;
11054;SDS011;5580;50.106;8.702;2023-03-29T05:13:35;7.37;;;4.30;;
11054;SDS011;5580;50.106;8.702;2023-03-29T05:16:02;8.43;;;4.10;;
11054;SDS011;5580;50.106;8.702;2023-03-29T05:18:28;6.50;;;4.17;;
11054;SDS011;5580;50.106;8.702;2023-03-29T05:20:55;6.63;;;4.33;;
11054;SDS011;5580;50.106;8.702;2023-03-29T05:23:22;7.77;;;4.57;;
11054;SDS011;5580;50.106;8.702;2023-03-29T05:25:49;7.33;;;4.40;;
11054;SDS011;5580;50.106;8.702;2023-03-29T05:28:15;7.53;;;4.17;;
11054;SDS011;5580;50.106;8.702;2023-03-29T05:30:42;7.57;;;4.37;;
11054;SDS011;5580;50.106;8.702;2023-03-29T05:33:08;8.40;;;4.93;;
11054;SDS011;5580;50.106;8.702;2023-03-29T05:35:34;7.90;;;4.47;;
11054;SDS011;5580;50.106;8.702;2023-03-29T05:38:00;5.27;;;4.10;;
11054;SDS011;5580;50.106;8.702;2023-03-29T05:40:26;8.53;;;4.37;;
11054;SDS011;5580;50.106;8.702;2023-03-29T05:42:52;8.23;;;4.10;;
11054;SDS011;5580;50.106;8.702;2023-03-29T05:45:18;10.13;;;5.20;;
11054;SDS011;5580;50.106;8.702;2023-03-29T05:47:43;8.17;;;4.90;;
11054;SDS011;5580;50.106;8.702;2023-03-29T05:50:09;10.73;;;4.80;;
11054;SDS011;5580;50.106;8.702;2023-03-29T05:52:35;10.03;;;4.90;;
11054;SDS011;5580;50.106;8.702;2023-03-29T05:55:02;9.63;;;4.87;;
11054;SDS011;5580;50.106;8.702;2023-03-29T05:57:28;11.73;;;4.47;;
11054;SDS011;5580;50.106;8.702;2023-03-29T05:59:54;7.90;;;4.77;;
11054;SDS011;5580;50.106;8.702;2023-03-29T06:02:20;7.63;;;4.50;;
11054;SDS011;5580;50.106;8.702;2023-03-29T06:04:46;6.77;;;4.20;;
11054;SDS011;5580;50.106;8.702;2023-03-29T06:07:12;7.23;;;4.20;;
11054;SDS011;5580;50.106;8.702;2023-03-29T06:09:38;9.00;;;4.43;;
11054;SDS011;5580;50.106;8.702;2023-03-29T06:12:04;10.77;;;4.53;;
11054;SDS011;5580;50.106;8.702;2023-03-29T06:14:31;9.70;;;4.60;;
11054;SDS011;5580;50.106;8.702;2023-03-29T06:16:57;9.27;;;5.23;;
11054;SDS011;5580;50.106;8.702;2023-03-29T06:19:24;15.20;;;5.63;;
11054;SDS011;5580;50.106;8.702;2023-03-29T06:21:50;10.30;;;5.57;;
11054;SDS011;5580;50.106;8.702;2023-03-29T06:24:17;11.60;;;5.90;;
11054;SDS011;5580;50.106;8.702;2023-03-29T06:26:44;13.17;;;5.93;;
11054;SDS011;5580;50.106;8.702;2023-03-29T06:29:11;11.97;;;6.23;;
11054;SDS011;5580;50.106;8.702;2023-03-29T06:31:36;12.63;;;6.20;;
11054;SDS011;5580;50.106;8.702;2023-03-29T06:34:02;12.03;;;6.10;;
11054;SDS011;5580;50.106;8.702;2023-03-29T06:36:28;12.77;;;5.97;;
11054;SDS011;5580;50.106;8.702;2023-03-29T06:38:55;15.43;;;6.40;;
11054;SDS011;5580;50.106;8.702;2023-03-29T06:41:21;12.27;;;6.00;;
11054;SDS011;5580;50.106;8.702;2023-03-29T06:43:47;10.27;;;6.60;;
11054;SDS011;5580;50.106;8.702;2023-03-29T06:46:13;11.77;;;6.53;;
11054;SDS011;5580;50.106;8.702;2023-03-29T06:48:39;11.37;;;6.27;;
11054;SDS011;5580;50.106;8.702;2023-03-29T06:51:05;11.60;;;6.17;;
11054;SDS011;5580;50.106;8.702;2023-03-29T06:53:31;11.33;;;6.40;;
11054;SDS011;5580;50.106;8.702;2023-03-29T06:55:57;11.10;;;6.13;;
11054;SDS011;5580;50.106;8.702;2023-03-29T06:58:23;11.70;;;6.30;;
11054;SDS011;5580;50.106;8.702;2023-03-29T07:00:49;10.47;;;5.60;;
11054;SDS011;5580;50.106;8.702;2023-03-29T07:03:15;12.53;;;5.87;;
11054;SDS011;5580;50.106;8.702;2023-03-29T07:05:47;10.63;;;5.70;;
11054;SDS011;5580;50.106;8.702;2023-03-29T07:08:15;10.73;;;5.70;;
11054;SDS011;5580;50.106;8.702;2023-03-29T07:10:43;10.03;;;5.90;;
11054;SDS011;5580;50.106;8.702;2023-03-29T07:13:11;9.73;;;5.67;;
11054;SDS011;5580;50.106;8.702;2023-03-29T07:15:38;10.60;;;5.93;;
11054;SDS011;5580;50.106;8.702;2023-03-29T07:18:05;10.23;;;5.40;;
11054;SDS011;5580;50.106;8.702;2023-03-29T07:20:31;9.80;;;5.60;;
11054;SDS011;5580;50.106;8.702;2023-03-29T07:22:57;11.43;;;5.40;;
11054;SDS011;5580;50.106;8.702;2023-03-29T07:25:24;12.27;;;5.80;;
11054;SDS011;5580;50.106;8.702;2023-03-29T07:27:51;10.00;;;5.40;;
11054;SDS011;5580;50.106;8.702;2023-03-29T07:30:18;9.23;;;5.57;;
11054;SDS011;5580;50.106;8.702;2023-03-29T07:32:47;9.20;;;5.27;;
11054;SDS011;5580;50.106;8.702;2023-03-29T07:35:15;10.07;;;5.40;;
11054;SDS011;5580;50.106;8.702;2023-03-29T07:37:41;11.27;;;5.37;;
11054;SDS011;5580;50.106;8.702;2023-03-29T07:40:09;9.67;;;5.43;;
11054;SDS011;5580;50.106;8.702;2023-03-29T07:42:40;9.80;;;5.40;;
11054;SDS011;5580;50.106;8.702;2023-03-29T07:45:08;10.70;;;5.57;;
11054;SDS011;5580;50.106;8.702;2023-03-29T07:47:34;8.17;;;5.50;;
11054;SDS011;5580;50.106;8.702;2023-03-29T07:50:00;11.87;;;5.67;;
11054;SDS011;5580;50.106;8.702;2023-03-29T07:52:26;8.50;;;5.67;;
11054;SDS011;5580;50.106;8.702;2023-03-29T07:54:55;10.93;;;5.47;;
11054;SDS011;5580;50.106;8.702;2023-03-29T07:57:22;8.80;;;5.13;;
11054;SDS011;5580;50.106;8.702;2023-03-29T07:59:48;8.27;;;4.80;;
11054;SDS011;5580;50.106;8.702;2023-03-29T08:02:14;10.10;;;5.60;;
11054;SDS011;5580;50.106;8.702;2023-03-29T08:04:40;7.80;;;5.20;;
11054;SDS011;5580;50.106;8.702;2023-03-29T08:07:06;9.30;;;5.10;;
11054;SDS011;5580;50.106;8.702;2023-03-29T08:09:31;9.80;;;5.30;;
11054;SDS011;5580;50.106;8.702;2023-03-29T08:11:57;10.60;;;5.70;;
11054;SDS011;5580;50.106;8.702;2023-03-29T08:14:23;10.50;;;5.40;;
11054;SDS011;5580;50.106;8.702;2023-03-29T08:16:48;9.60;;;5.27;;
11054;SDS011;5580;50.106;8.702;2023-03-29T08:19:16;10.07;;;5.70;;
11054;SDS011;5580;50.106;8.702;2023-03-29T08:21:42;9.03;;;5.20;;
11054;SDS011;5580;50.106;8.702;2023-03-29T08:24:08;11.07;;;5.33;;
11054;SDS011;5580;50.106;8.702;2023-03-29T08:26:34;10.77;;;5.20;;
11054;SDS011;5580;50.106;8.702;2023-03-29T08:28:59;9.10;;;5.07;;
11054;SDS011;5580;50.106;8.702;2023-03-29T08:31:25;9.67;;;5.10;;
11054;SDS011;5580;50.106;8.702;2023-03-29T08:33:51;10.50;;;5.60;;
11054;SDS011;5580;50.106;8.702;2023-03-29T08:36:17;9.37;;;5.20;;
11054;SDS011;5580;50.106;8.702;2023-03-29T08:38:43;8.93;;;5.10;;
11054;SDS011;5580;50.106;8.702;2023-03-29T08:41:23;8.50;;;5.07;;
11054;SDS011;5580;50.106;8.702;2023-03-29T08:44:03;11.03;;;5.10;;
11054;SDS011;5580;50.106;8.702;2023-03-29T08:49:16;11.37;;;5.43;;
11054;SDS011;5580;50.106;8.702;2023-03-29T08:51:44;11.10;;;5.37;;
11054;SDS011;5580;50.106;8.702;2023-03-29T08:55:02;10.20;;;5.30;;
11054;SDS011;5580;50.106;8.702;2023-03-29T08:57:19;9.93;;;5.37;;
11054;SDS011;5580;50.106;8.702;2023-03-29T08:59:57;9.17;;;5.30;;
11054;SDS011;5580;50.106;8.702;2023-03-29T09:02:30;9.03;;;4.97;;
11054;SDS011;5580;50.106;8.702;2023-03-29T09:05:04;10.10;;;5.30;;
11054;SDS011;5580;50.106;8.702;2023-03-29T09:07:42;10.27;;;5.27;;
11054;SDS011;5580;50.106;8.702;2023-03-29T09:10:11;10.67;;;4.77;;
11054;SDS011;5580;50.106;8.702;2023-03-29T09:13:06;8.67;;;5.17;;
11054;SDS011;5580;50.106;8.702;2023-03-29T09:28:37;9.10;;;5.37;;
11054;SDS011;5580;50.106;8.702;2023-03-29T09:31:12;8.00;;;5.10;;
11054;SDS011;5580;50.106;8.702;2023-03-29T09:34:03;8.43;;;5.10;;
11054;SDS011;5580;50.106;8.702;2023-03-29T09:37:10;8.90;;;5.23;;
11054;SDS011;5580;50.106;8.702;2023-03-29T09:39:45;11.10;;;5.57;;
11054;SDS011;5580;50.106;8.702;2023-03-29T09:42:11;10.00;;;5.50;;
11054;SDS011;5580;50.106;8.702;2023-03-29T09:44:41;9.47;;;5.27;;
11054;SDS011;5580;50.106;8.702;2023-03-29T09:47:16;8.70;;;4.80;;
11054;SDS011;5580;50.106;8.702;2023-03-29T09:49:44;6.80;;;5.10;;
11054;SDS011;5580;50.106;8.702;2023-03-29T09:52:13;9.10;;;5.27;;
11054;SDS011;5580;50.106;8.702;2023-03-29T09:54:41;8.70;;;5.17;;
11054;SDS011;5580;50.106;8.702;2023-03-29T09:57:10;10.33;;;5.30;;
11054;SDS011;5580;50.106;8.702;2023-03-29T09:59:39;10.03;;;5.30;;
11054;SDS011;5580;50.106;8.702;2023-03-29T10:02:06;8.10;;;5.10;;
11054;SDS011;5580;50.106;8.702;2023-03-29T10:04:37;10.43;;;5.03;;
11054;SDS011;5580;50.106;8.702;2023-03-29T10:07:04;7.27;;;5.00;;
11054;SDS011;5580;50.106;8.702;2023-03-29T10:09:32;10.50;;;5.53;;
11054;SDS011;5580;50.106;8.702;2023-03-29T10:11:59;10.10;;;5.30;;
11054;SDS011;5580;50.106;8.702;2023-03-29T10:15:02;8.27;;;5.17;;
11054;SDS011;5580;50.106;8.702;2023-03-29T10:17:24;9.10;;;5.20;;
11054;SDS011;5580;50.106;8.702;2023-03-29T10:19:55;9.70;;;5.00;;
11054;SDS011;5580;50.106;8.702;2023-03-29T10:22:23;9.10;;;5.17;;
11054;SDS011;5580;50.106;8.702;2023-03-29T10:25:08;11.97;;;5.60;;
11054;SDS011;5580;50.106;8.702;2023-03-29T10:27:39;8.30;;;5.10;;
11054;SDS011;5580;50.106;8.702;2023-03-29T10:30:07;8.87;;;5.20;;
11054;SDS011;5580;50.106;8.702;2023-03-29T10:32:42;11.37;;;5.53;;
11054;SDS011;5580;50.106;8.702;2023-03-29T10:37:56;9.67;;;5.50;;
11054;SDS011;5580;50.106;8.702;2023-03-29T10:40:27;8.97;;;5.03;;
11054;SDS011;5580;50.106;8.702;2023-03-29T10:46:04;9.80;;;5.17;;
11054;SDS011;5580;50.106;8.702;2023-03-29T10:48:36;9.57;;;5.17;;
11054;SDS011;5580;50.106;8.702;2023-03-29T10:51:03;9.77;;;5.23;;
11054;SDS011;5580;50.106;8.702;2023-03-29T10:59:30;8.47;;;5.13;;
11054;SDS011;5580;50.106;8.702;2023-03-29T11:02:16;11.03;;;5.33;;
11054;SDS011;5580;50.106;8.702;2023-03-29T11:07:33;7.50;;;5.00;;
11054;SDS011;5580;50.106;8.702;2023-03-29T11:10:22;7.97;;;5.00;;
11054;SDS011;5580;50.106;8.702;2023-03-29T11:18:56;10.63;;;5.07;;
11054;SDS011;5580;50.106;8.702;2023-03-29T11:21:40;11.07;;;5.73;;
11054;SDS011;5580;50.106;8.702;2023-03-29T11:27:53;10.53;;;5.47;;
11054;SDS011;5580;50.106;8.702;2023-03-29T11:38:13;8.30;;;5.20;;
11054;SDS011;5580;50.106;8.702;2023-03-29T11:43:36;9.87;;;5.03;;
11054;SDS011;5580;50.106;8.702;2023-03-29T11:46:16;11.33;;;5.63;;
11054;SDS011;5580;50.106;8.702;2023-03-29T11:48:58;8.13;;;5.30;;
11054;SDS011;5580;50.106;8.702;2023-03-29T11:54:06;9.30;;;5.27;;
11054;SDS011;5580;50.106;8.702;2023-03-29T11:56:51;10.20;;;5.70;;
11054;SDS011;5580;50.106;8.702;2023-03-29T11:59:33;11.07;;;5.33;;
11054;SDS011;5580;50.106;8.702;2023-03-29T12:04:33;9.13;;;5.13;;
11054;SDS011;5580;50.106;8.702;2023-03-29T12:09:35;10.33;;;5.70;;
11054;SDS011;5580;50.106;8.702;2023-03-29T12:12:16;10.60;;;5.43;;
11054;SDS011;5580;50.106;8.702;2023-03-29T12:17:31;9.80;;;5.63;;
11054;SDS011;5580;50.106;8.702;2023-03-29T12:20:02;11.07;;;5.90;;
11054;SDS011;5580;50.106;8.702;2023-03-29T12:22:42;10.70;;;5.40;;
11054;SDS011;5580;50.106;8.702;2023-03-29T12:25:11;9.23;;;5.50;;
11054;SDS011;5580;50.106;8.702;2023-03-29T12:27:45;11.27;;;5.57;;
11054;SDS011;5580;50.106;8.702;2023-03-29T12:30:31;13.30;;;5.70;;
11054;SDS011;5580;50.106;8.702;2023-03-29T12:38:36;9.07;;;5.47;;
11054;SDS011;5580;50.106;8.702;2023-03-29T12:41:07;8.83;;;5.43;;
11054;SDS011;5580;50.106;8.702;2023-03-29T12:43:39;10.50;;;5.67;;
11054;SDS011;5580;50.106;8.702;2023-03-29T12:48:41;11.23;;;5.83;;
11054;SDS011;5580;50.106;8.702;2023-03-29T12:51:11;11.30;;;5.43;;
11054;SDS011;5580;50.106;8.702;2023-03-29T12:56:14;11.53;;;5.47;;
11054;SDS011;5580;50.106;8.702;2023-03-29T13:01:33;10.17;;;5.50;;
11054;SDS011;5580;50.106;8.702;2023-03-29T13:14:45;10.37;;;5.87;;
11054;SDS011;5580;50.106;8.702;2023-03-29T13:17:34;12.13;;;5.87;;
11054;SDS011;5580;50.106;8.702;2023-03-29T13:31:31;11.70;;;5.60;;
11054;SDS011;5580;50.106;8.702;2023-03-29T13:34:44;11.10;;;5.97;;
11054;SDS011;5580;50.106;8.702;2023-03-29T13:37:32;9.70;;;5.63;;
11054;SDS011;5580;50.106;8.702;2023-03-29T13:42:57;9.23;;;5.57;;
11054;SDS011;5580;50.106;8.702;2023-03-29T13:45:32;9.00;;;5.87;;
11054;SDS011;5580;50.106;8.702;2023-03-29T13:50:38;9.13;;;5.17;;
11054;SDS011;5580;50.106;8.702;2023-03-29T13:53:19;7.77;;;5.13;;
11054;SDS011;5580;50.106;8.702;2023-03-29T13:55:53;8.63;;;5.20;;
11054;SDS011;5580;50.106;8.702;2023-03-29T14:03:44;11.90;;;5.30;;
11054;SDS011;5580;50.106;8.702;2023-03-29T14:06:13;11.63;;;5.60;;
11054;SDS011;5580;50.106;8.702;2023-03-29T14:08:43;11.30;;;5.70;;
11054;SDS011;5580;50.106;8.702;2023-03-29T14:11:25;9.93;;;5.40;;
11054;SDS011;5580;50.106;8.702;2023-03-29T14:13:53;8.47;;;5.23;;
11054;SDS011;5580;50.106;8.702;2023-03-29T14:16:21;10.67;;;5.37;;
11054;SDS011;5580;50.106;8.702;2023-03-29T14:18:51;9.23;;;5.50;;
11054;SDS011;5580;50.106;8.702;2023-03-29T14:21:17;12.50;;;6.37;;
11054;SDS011;5580;50.106;8.702;2023-03-29T14:23:44;10.83;;;5.57;;
11054;SDS011;5580;50.106;8.702;2023-03-29T14:28:42;10.30;;;5.00;;
11054;SDS011;5580;50.106;8.702;2023-03-29T14:31:21;8.33;;;5.20;;
11054;SDS011;5580;50.106;8.702;2023-03-29T14:33:54;9.27;;;5.37;;
11054;SDS011;5580;50.106;8.702;2023-03-29T14:36:22;11.00;;;5.17;;
11054;SDS011;5580;50.106;8.702;2023-03-29T14:38:54;10.60;;;5.70;;
11054;SDS011;5580;50.106;8.702;2023-03-29T14:41:27;12.27;;;6.03;;
11054;SDS011;5580;50.106;8.702;2023-03-29T14:43:57;8.20;;;5.33;;
11054;SDS011;5580;50.106;8.702;2023-03-29T14:46:24;9.27;;;5.23;;
11054;SDS011;5580;50.106;8.702;2023-03-29T14:48:51;10.60;;;5.47;;
11054;SDS011;5580;50.106;8.702;2023-03-29T14:51:17;10.60;;;5.37;;
11054;SDS011;5580;50.106;8.702;2023-03-29T14:53:44;8.77;;;5.00;;
11054;SDS011;5580;50.106;8.702;2023-03-29T14:56:13;9.20;;;5.00;;
11054;SDS011;5580;50.106;8.702;2023-03-29T14:58:45;9.00;;;4.87;;
11054;SDS011;5580;50.106;8.702;2023-03-29T15:01:15;6.83;;;4.40;;
11054;SDS011;5580;50.106;8.702;2023-03-29T15:03:45;9.23;;;5.13;;
11054;SDS011;5580;50.106;8.702;2023-03-29T15:06:16;8.10;;;4.60;;
11054;SDS011;5580;50.106;8.702;2023-03-29T15:08:43;8.57;;;4.73;;
11054;SDS011;5580;50.106;8.702;2023-03-29T15:11:14;9.37;;;4.63;;
11054;SDS011;5580;50.106;8.702;2023-03-29T15:13:44;8.70;;;4.70;;
11054;SDS011;5580;50.106;8.702;2023-03-29T15:16:14;9.90;;;4.63;;
11054;SDS011;5580;50.106;8.702;2023-03-29T15:18:43;9.27;;;4.60;;
11054;SDS011;5580;50.106;8.702;2023-03-29T15:21:12;6.93;;;4.67;;
11054;SDS011;5580;50.106;8.702;2023-03-29T15:24:02;7.87;;;4.70;;
11054;SDS011;5580;50.106;8.702;2023-03-29T15:26:34;7.73;;;4.57;;
11054;SDS011;5580;50.106;8.702;2023-03-29T15:29:04;9.27;;;5.00;;
11054;SDS011;5580;50.106;8.702;2023-03-29T15:31:39;6.47;;;4.50;;
11054;SDS011;5580;50.106;8.702;2023-03-29T15:36:42;11.00;;;5.07;;
11054;SDS011;5580;50.106;8.702;2023-03-29T15:39:12;8.83;;;4.70;;
11054;SDS011;5580;50.106;8.702;2023-03-29T15:41:40;6.70;;;4.50;;
11054;SDS011;5580;50.106;8.702;2023-03-29T15:44:06;8.47;;;4.83;;
11054;SDS011;5580;50.106;8.702;2023-03-29T15:46:32;9.37;;;4.80;;
11054;SDS011;5580;50.106;8.702;2023-03-29T15:48:58;7.13;;;4.70;;
11054;SDS011;5580;50.106;8.702;2023-03-29T15:51:23;10.27;;;5.20;;
11054;SDS011;5580;50.106;8.702;2023-03-29T15:53:49;6.30;;;4.60;;
11054;SDS011;5580;50.106;8.702;2023-03-29T15:56:16;9.03;;;4.50;;
11054;SDS011;5580;50.106;8.702;2023-03-29T15:58:44;8.27;;;4.70;;
11054;SDS011;5580;50.106;8.702;2023-03-29T16:03:47;9.27;;;5.00;;
11054;SDS011;5580;50.106;8.702;2023-03-29T16:06:14;8.90;;;4.57;;
11054;SDS011;5580;50.106;8.702;2023-03-29T16:08:41;9.23;;;5.10;;
11054;SDS011;5580;50.106;8.702;2023-03-29T16:11:07;9.87;;;5.00;;
11054;SDS011;5580;50.106;8.702;2023-03-29T16:13:33;9.07;;;4.60;;
11054;SDS011;5580;50.106;8.702;2023-03-29T16:15:58;7.83;;;4.40;;
11054;SDS011;5580;50.106;8.702;2023-03-29T16:18:24;8.10;;;4.80;;
11054;SDS011;5580;50.106;8.702;2023-03-29T16:20:50;6.40;;;4.33;;
11054;SDS011;5580;50.106;8.702;2023-03-29T16:23:15;6.63;;;4.53;;
11054;SDS011;5580;50.106;8.702;2023-03-29T16:25:41;6.87;;;4.50;;
11054;SDS011;5580;50.106;8.702;2023-03-29T16:28:07;7.53;;;4.67;;
11054;SDS011;5580;50.106;8.702;2023-03-29T16:30:34;8.07;;;4.57;;
11054;SDS011;5580;50.106;8.702;2023-03-29T16:33:01;8.80;;;4.33;;
11054;SDS011;5580;50.106;8.702;2023-03-29T16:35:32;6.97;;;4.30;;
11054;SDS011;5580;50.106;8.702;2023-03-29T16:38:00;8.57;;;4.67;;
11054;SDS011;5580;50.106;8.702;2023-03-29T16:40:26;6.03;;;4.20;;
11054;SDS011;5580;50.106;8.702;2023-03-29T16:42:51;6.97;;;4.20;;
11054;SDS011;5580;50.106;8.702;2023-03-29T16:45:17;5.90;;;4.13;;
11054;SDS011;5580;50.106;8.702;2023-03-29T16:47:43;6.80;;;4.30;;
11054;SDS011;5580;50.106;8.702;2023-03-29T16:50:16;7.73;;;4.07;;
11054;SDS011;5580;50.106;8.702;2023-03-29T16:52:43;5.80;;;4.10;;
11054;SDS011;5580;50.106;8.702;2023-03-29T16:55:11;6.53;;;3.93;;
11054;SDS011;5580;50.106;8.702;2023-03-29T16:57:37;7.03;;;4.10;;
11054;SDS011;5580;50.106;8.702;2023-03-29T17:00:04;5.93;;;4.23;;
11054;SDS011;5580;50.106;8.702;2023-03-29T17:02:31;6.07;;;4.00;;
11054;SDS011;5580;50.106;8.702;2023-03-29T17:04:57;7.03;;;4.30;;
11054;SDS011;5580;50.106;8.702;2023-03-29T17:07:22;6.17;;;3.80;;
11054;SDS011;5580;50.106;8.702;2023-03-29T17:09:49;7.60;;;4.30;;
11054;SDS011;5580;50.106;8.702;2023-03-29T17:12:14;7.23;;;4.30;;
11054;SDS011;5580;50.106;8.702;2023-03-29T17:14:41;6.43;;;4.33;;
11054;SDS011;5580;50.106;8.702;2023-03-29T17:17:07;8.90;;;4.30;;
11054;SDS011;5580;50.106;8.702;2023-03-29T17:19:32;8.13;;;4.50;;
11054;SDS011;5580;50.106;8.702;2023-03-29T17:21:58;7.90;;;4.67;;
11054;SDS011;5580;50.106;8.702;2023-03-29T17:24:24;8.70;;;4.70;;
11054;SDS011;5580;50.106;8.702;2023-03-29T17:26:49;7.63;;;4.60;;
11054;SDS011;5580;50.106;8.702;2023-03-29T17:29:15;8.83;;;4.67;;